Time;durP1;ratioP1;P1;durP2;ratioP2;P2;SDS_P1;SDS_P2;PMS_P1;PMS_P2;Temp;Humidity;BMP_temperature;BMP_pressure;BME280_temperature;BME280_humidity;BME280_pressure;Samples;Min_cycle;Max_cycle;Signal;HPM_P1;HPM_P2
2023/08/30 00:01:17;;;;;;;43.17;14.48;;;17.50;85.70;;;;;;4739780;30;20066;-90
2023/08/30 00:03:44;;;;;;;48.73;15.83;;;17.60;85.60;;;;;;4728586;30;20143;-89
2023/08/30 00:06:12;;;;;;;46.28;15.45;;;17.50;85.60;;;;;;4757527;30;20117;-88
2023/08/30 00:08:39;;;;;;;49.20;14.40;;;17.50;85.70;;;;;;4757565;30;20059;-89
2023/08/30 00:11:06;;;;;;;39.88;13.68;;;17.50;85.60;;;;;;4757422;30;20146;-89
2023/08/30 00:13:33;;;;;;;35.85;13.27;;;17.50;85.60;;;;;;4757249;30;20056;-88
2023/08/30 00:16:02;;;;;;;37.27;14.00;;;17.60;85.60;;;;;;4752278;30;20118;-89
2023/08/30 00:18:30;;;;;;;45.50;14.68;;;17.60;85.50;;;;;;4732395;30;20053;-88
2023/08/30 00:20:58;;;;;;;80.50;16.75;;;17.60;85.40;;;;;;4736772;30;20076;-89
2023/08/30 00:23:25;;;;;;;61.00;17.25;;;17.60;85.40;;;;;;4736579;30;20067;-89
2023/08/30 00:25:52;;;;;;;60.30;17.13;;;17.50;85.50;;;;;;4753978;30;20056;-89
2023/08/30 00:28:19;;;;;;;56.83;17.73;;;17.40;86.00;;;;;;4757193;30;20059;-89
2023/08/30 00:30:47;;;;;;;45.85;16.58;;;17.40;86.20;;;;;;4756829;30;20113;-89
2023/08/30 00:33:14;;;;;;;42.65;15.48;;;17.40;86.30;;;;;;4757196;30;20134;-89
2023/08/30 00:35:41;;;;;;;46.10;15.55;;;17.50;86.10;;;;;;4757160;30;20400;-89
2023/08/30 00:38:08;;;;;;;49.47;16.25;;;17.50;85.80;;;;;;4757064;30;20048;-90
2023/08/30 00:40:39;;;;;;;66.97;15.93;;;17.60;85.80;;;;;;4756919;30;20123;-90
2023/08/30 00:43:08;;;;;;;51.90;17.02;;;17.60;85.60;;;;;;4745098;30;20056;-89
2023/08/30 00:45:40;;;;;;;53.95;16.45;;;17.60;85.70;;;;;;4739273;30;20511;-90
2023/08/30 00:48:07;;;;;;;42.30;13.98;;;17.50;85.70;;;;;;4739033;30;20056;-89
2023/08/30 00:50:35;;;;;;;68.38;15.05;;;17.60;85.70;;;;;;4724643;30;20056;-89
2023/08/30 00:53:05;;;;;;;43.17;12.93;;;17.60;85.50;;;;;;4724623;30;20130;-90
2023/08/30 00:55:37;;;;;;;43.67;13.70;;;17.60;85.20;;;;;;4724706;30;20056;-89
2023/08/30 00:58:05;;;;;;;59.30;14.20;;;17.50;85.40;;;;;;4739230;30;20476;-89
2023/08/30 01:00:34;;;;;;;73.75;14.93;;;17.50;85.40;;;;;;4746535;30;20062;-89
2023/08/30 01:03:02;;;;;;;97.40;14.55;;;17.40;85.50;;;;;;4756828;30;20055;-89
2023/08/30 01:05:29;;;;;;;43.80;13.27;;;17.30;85.50;;;;;;4756165;30;20585;-89
2023/08/30 01:07:57;;;;;;;56.28;14.13;;;17.30;85.60;;;;;;4756684;30;20503;-89
2023/08/30 01:10:50;;;;;;;97.70;14.63;;;17.30;85.50;;;;;;4756426;30;20047;-89
2023/08/30 01:13:20;;;;;;;70.72;14.73;;;17.20;85.50;;;;;;4756303;30;20418;-90
2023/08/30 01:15:48;;;;;;;51.97;14.10;;;17.20;85.60;;;;;;4748616;30;20495;-89
2023/08/30 01:18:20;;;;;;;85.87;15.17;;;17.20;85.60;;;;;;4741284;30;20071;-89
2023/08/30 01:20:48;;;;;;;53.47;14.85;;;17.10;85.70;;;;;;4756364;30;20064;-89
2023/08/30 01:23:22;;;;;;;63.58;14.65;;;17.10;86.00;;;;;;4741903;30;20059;-90
2023/08/30 01:26:02;;;;;;;62.55;16.35;;;17.10;86.00;;;;;;4756036;30;20146;-90
2023/08/30 01:28:32;;;;;;;53.00;15.73;;;17.00;86.00;;;;;;4756174;30;20066;-89
2023/08/30 01:31:00;;;;;;;37.43;13.30;;;17.10;86.20;;;;;;4755830;30;20146;-90
2023/08/30 01:33:27;;;;;;;29.52;11.35;;;17.20;85.90;;;;;;4746433;30;20508;-90
2023/08/30 01:35:58;;;;;;;30.42;11.80;;;17.20;85.70;;;;;;4738347;30;20059;-90
2023/08/30 01:38:28;;;;;;;39.53;13.07;;;17.20;85.50;;;;;;4723714;30;20142;-90
2023/08/30 01:40:57;;;;;;;42.85;11.88;;;17.20;85.50;;;;;;4738257;30;20063;-90
2023/08/30 01:43:26;;;;;;;32.47;11.27;;;17.10;85.40;;;;;;4738097;30;20056;-90
2023/08/30 01:45:56;;;;;;;49.50;12.50;;;17.10;85.50;;;;;;4738208;30;20059;-90
2023/08/30 01:48:24;;;;;;;32.17;10.90;;;17.20;85.60;;;;;;4723494;30;20087;-90
2023/08/30 01:50:51;;;;;;;28.40;10.00;;;17.20;85.20;;;;;;4738056;30;20074;-90
2023/08/30 01:53:20;;;;;;;31.35;10.10;;;17.20;85.10;;;;;;4723868;30;20122;-90
2023/08/30 01:55:47;;;;;;;29.03;9.20;;;17.20;84.90;;;;;;4745472;30;20048;-90
2023/08/30 01:58:14;;;;;;;25.67;8.90;;;17.20;84.90;;;;;;4723606;30;20047;-90
2023/08/30 02:00:42;;;;;;;24.55;9.43;;;17.10;84.70;;;;;;4737936;30;20056;-90
2023/08/30 02:03:13;;;;;;;26.42;8.43;;;17.10;85.00;;;;;;4741145;30;20047;-90
2023/08/30 02:06:11;;;;;;;23.73;8.13;;;17.00;85.10;;;;;;4742972;30;20095;-90
2023/08/30 02:08:49;;;;;;;21.13;7.53;;;17.00;85.20;;;;;;4720440;30;20107;-90
2023/08/30 02:11:23;;;;;;;21.55;7.03;;;17.00;85.20;;;;;;4706436;30;20496;-90
2023/08/30 02:13:54;;;;;;;19.65;6.25;;;17.00;85.20;;;;;;4740084;30;20422;-90
2023/08/30 02:16:22;;;;;;;18.35;5.63;;;16.90;85.30;;;;;;4723369;30;20044;-90
2023/08/30 02:18:50;;;;;;;19.65;6.10;;;16.80;85.40;;;;;;4723386;30;20612;-90
2023/08/30 02:21:18;;;;;;;17.83;6.30;;;16.80;85.30;;;;;;4737823;30;20078;-91
2023/08/30 02:23:50;;;;;;;18.77;5.85;;;16.90;85.50;;;;;;4737870;30;20491;-90
2023/08/30 02:26:21;;;;;;;18.58;6.95;;;17.00;85.50;;;;;;4723084;30;20515;-91
2023/08/30 02:28:48;;;;;;;18.63;6.22;;;16.90;85.20;;;;;;4737665;30;20399;-90
2023/08/30 02:31:15;;;;;;;16.60;5.80;;;16.90;85.10;;;;;;4737831;30;20052;-90
2023/08/30 02:33:43;;;;;;;17.77;6.27;;;16.90;85.30;;;;;;4753829;30;20415;-89
2023/08/30 02:36:11;;;;;;;15.57;5.75;;;17.00;85.00;;;;;;4737656;30;20448;-90
2023/08/30 02:38:38;;;;;;;17.05;6.68;;;16.90;85.10;;;;;;4736807;30;20081;-90
2023/08/30 02:41:05;;;;;;;17.23;6.10;;;16.90;85.20;;;;;;4755204;30;20129;-90
2023/08/30 02:43:32;;;;;;;20.92;6.88;;;17.00;85.20;;;;;;4741058;30;20060;-91
2023/08/30 02:46:01;;;;;;;22.73;7.80;;;17.00;85.00;;;;;;4755241;30;20051;-90
2023/08/30 02:48:28;;;;;;;20.48;7.57;;;17.00;84.70;;;;;;4742957;30;20058;-90
2023/08/30 02:50:55;;;;;;;21.80;7.85;;;17.00;84.90;;;;;;4744181;30;20388;-90
2023/08/30 02:53:22;;;;;;;26.55;9.18;;;17.00;85.00;;;;;;4749362;30;20140;-90
2023/08/30 02:55:49;;;;;;;27.65;10.07;;;17.00;84.80;;;;;;4744294;30;20055;-92
2023/08/30 02:58:16;;;;;;;23.23;9.97;;;17.00;85.00;;;;;;4743406;30;20060;-89
2023/08/30 03:00:43;;;;;;;26.75;10.05;;;17.00;85.00;;;;;;4735255;30;20048;-90
2023/08/30 03:03:10;;;;;;;24.98;9.52;;;17.00;84.80;;;;;;4741059;30;20110;-89
2023/08/30 03:05:38;;;;;;;28.58;10.13;;;17.00;84.60;;;;;;4728125;30;20087;-90
2023/08/30 03:08:05;;;;;;;30.48;11.25;;;17.10;84.60;;;;;;4758406;30;20097;-90
2023/08/30 03:10:33;;;;;;;28.70;11.60;;;17.00;84.50;;;;;;4743571;30;20086;-91
2023/08/30 03:13:00;;;;;;;28.75;11.02;;;17.00;84.70;;;;;;4744321;30;20044;-90
2023/08/30 03:15:27;;;;;;;29.05;11.65;;;17.10;84.60;;;;;;4742399;30;20418;-90
2023/08/30 03:17:54;;;;;;;28.52;11.55;;;17.10;84.30;;;;;;4726027;30;20542;-90
2023/08/30 03:20:23;;;;;;;30.75;11.30;;;17.10;84.10;;;;;;4726378;30;20044;-90
2023/08/30 03:22:50;;;;;;;29.03;11.50;;;17.10;84.20;;;;;;4742333;30;20052;-89
2023/08/30 03:25:17;;;;;;;30.00;11.60;;;17.10;84.40;;;;;;4726644;30;20055;-89
2023/08/30 03:27:44;;;;;;;31.42;10.98;;;17.00;84.30;;;;;;4753971;30;20055;-90
2023/08/30 03:30:12;;;;;;;26.10;11.30;;;17.00;84.50;;;;;;4725897;30;20051;-90
2023/08/30 03:32:39;;;;;;;28.52;10.93;;;17.00;84.60;;;;;;4745134;30;20066;-89
2023/08/30 03:35:08;;;;;;;29.90;11.57;;;17.00;84.50;;;;;;4758013;30;20052;-90
2023/08/30 03:37:35;;;;;;;29.83;12.07;;;17.10;84.50;;;;;;4752735;30;20139;-89
2023/08/30 03:40:04;;;;;;;29.88;10.98;;;17.10;84.50;;;;;;4740492;30;20460;-89
2023/08/30 03:42:31;;;;;;;29.98;12.10;;;17.10;84.70;;;;;;4725627;30;20146;-90
2023/08/30 03:44:58;;;;;;;29.65;11.48;;;17.00;84.60;;;;;;4739748;30;20051;-90
2023/08/30 03:47:26;;;;;;;29.43;11.63;;;17.00;84.60;;;;;;4758072;30;20147;-89
2023/08/30 03:49:53;;;;;;;30.73;11.82;;;17.00;84.50;;;;;;4743333;30;20104;-89
2023/08/30 03:52:20;;;;;;;30.52;11.60;;;17.00;84.80;;;;;;4753890;30;20104;-89
2023/08/30 03:54:47;;;;;;;27.95;11.63;;;17.00;84.60;;;;;;4743251;30;20056;-89
2023/08/30 03:57:14;;;;;;;28.10;10.95;;;16.90;84.50;;;;;;4733721;30;20059;-89
2023/08/30 03:59:41;;;;;;;25.63;10.93;;;17.00;84.70;;;;;;4738061;30;20564;-90
2023/08/30 04:02:08;;;;;;;25.80;10.93;;;17.00;84.70;;;;;;4757603;30;20062;-89
2023/08/30 04:04:35;;;;;;;29.58;10.95;;;17.00;84.50;;;;;;4742911;30;20076;-90
2023/08/30 04:07:02;;;;;;;24.48;10.32;;;17.00;84.60;;;;;;4757585;30;20092;-90
2023/08/30 04:09:29;;;;;;;24.15;10.48;;;17.00;84.70;;;;;;4740679;30;20060;-89
2023/08/30 04:11:58;;;;;;;21.83;9.97;;;17.00;84.50;;;;;;4731699;30;20048;-90
2023/08/30 04:14:26;;;;;;;22.95;9.45;;;17.00;84.40;;;;;;4743026;30;20052;-89
2023/08/30 04:16:53;;;;;;;22.55;9.98;;;17.00;84.40;;;;;;4753592;30;20411;-89
2023/08/30 04:19:20;;;;;;;22.42;9.27;;;17.00;84.30;;;;;;4725153;30;20052;-90
2023/08/30 04:21:47;;;;;;;20.67;9.45;;;17.00;84.30;;;;;;4731020;30;20067;-90
2023/08/30 04:24:15;;;;;;;19.33;9.43;;;17.10;84.10;;;;;;4725407;30;20052;-91
2023/08/30 04:26:42;;;;;;;21.35;9.30;;;17.10;83.80;;;;;;4739369;30;20076;-89
2023/08/30 04:29:09;;;;;;;20.80;8.95;;;17.10;83.80;;;;;;4742525;30;20052;-90
2023/08/30 04:31:36;;;;;;;22.50;8.77;;;17.20;83.60;;;;;;4725758;30;20583;-90
2023/08/30 04:34:03;;;;;;;15.68;7.43;;;17.10;83.40;;;;;;4724789;30;20110;-89
2023/08/30 04:36:30;;;;;;;17.17;7.23;;;17.00;83.80;;;;;;4728696;30;20075;-89
2023/08/30 04:38:57;;;;;;;15.82;6.80;;;16.90;84.20;;;;;;4740276;30;20047;-90
2023/08/30 04:41:30;;;;;;;18.98;7.30;;;17.00;84.40;;;;;;4739857;30;20059;-89
2023/08/30 04:43:57;;;;;;;12.80;5.22;;;16.90;84.40;;;;;;4740777;30;20056;-89
2023/08/30 04:46:25;;;;;;;16.75;6.93;;;17.00;84.40;;;;;;4757126;30;20550;-89
2023/08/30 04:48:52;;;;;;;13.63;5.73;;;16.90;84.20;;;;;;4742166;30;20052;-90
2023/08/30 04:51:19;;;;;;;14.25;5.45;;;16.90;84.40;;;;;;4733605;30;20094;-89
2023/08/30 04:53:46;;;;;;;15.23;5.95;;;16.90;84.40;;;;;;4735960;30;20105;-89
2023/08/30 04:56:14;;;;;;;13.10;4.90;;;17.00;84.30;;;;;;4739928;30;20051;-89
2023/08/30 04:58:41;;;;;;;12.13;5.97;;;17.00;84.00;;;;;;4739131;30;20130;-90
2023/08/30 05:01:13;;;;;;;11.73;4.60;;;16.90;84.20;;;;;;4733119;30;20144;-89
2023/08/30 05:03:42;;;;;;;11.55;3.90;;;16.90;84.40;;;;;;4756558;30;20063;-89
2023/08/30 05:06:15;;;;;;;10.90;4.20;;;16.90;84.40;;;;;;4756801;30;20051;-89
2023/08/30 05:08:43;;;;;;;11.98;4.72;;;16.80;84.70;;;;;;4737659;30;20130;-90
2023/08/30 05:11:10;;;;;;;11.95;4.50;;;16.80;84.60;;;;;;4723966;30;20049;-89
2023/08/30 05:13:38;;;;;;;11.67;4.60;;;16.80;84.60;;;;;;4724244;30;20062;-90
2023/08/30 05:16:05;;;;;;;12.70;4.45;;;16.80;84.50;;;;;;4734992;30;20075;-89
2023/08/30 05:18:33;;;;;;;12.57;5.00;;;16.80;84.50;;;;;;4738833;30;20445;-89
2023/08/30 05:21:03;;;;;;;12.30;4.43;;;16.70;84.50;;;;;;4724548;30;20044;-90
2023/08/30 05:23:31;;;;;;;11.18;4.90;;;16.80;84.40;;;;;;4724132;30;20095;-89
2023/08/30 05:25:58;;;;;;;12.13;5.13;;;16.90;84.40;;;;;;4737560;30;20058;-90
2023/08/30 05:28:25;;;;;;;12.10;4.90;;;16.90;84.40;;;;;;4741497;30;20075;-90
2023/08/30 05:30:52;;;;;;;11.60;4.75;;;16.90;84.40;;;;;;4726733;30;20070;-90
2023/08/30 05:33:54;;;;;;;11.93;4.28;;;16.90;84.30;;;;;;4710425;30;20045;-89
2023/08/30 05:36:41;;;;;;;10.50;4.40;;;16.90;84.10;;;;;;4752497;30;20483;-89
2023/08/30 05:39:29;;;;;;;10.23;4.30;;;16.90;84.30;;;;;;4749211;30;20052;-90
2023/08/30 05:41:57;;;;;;;11.18;4.18;;;16.90;84.10;;;;;;4756113;30;20442;-90
2023/08/30 05:44:24;;;;;;;11.27;4.72;;;16.90;84.30;;;;;;4752804;30;20114;-90
2023/08/30 05:46:51;;;;;;;12.50;4.72;;;16.90;84.30;;;;;;4738351;30;20052;-90
2023/08/30 05:49:18;;;;;;;13.63;5.20;;;17.00;84.10;;;;;;4723441;30;20535;-90
2023/08/30 05:51:45;;;;;;;11.03;5.20;;;17.00;83.80;;;;;;4737901;30;20056;-90
2023/08/30 05:54:13;;;;;;;17.63;6.20;;;17.00;83.70;;;;;;4723521;30;20044;-90
2023/08/30 05:56:41;;;;;;;13.13;5.53;;;17.10;83.30;;;;;;4738199;30;20392;-90
2023/08/30 05:59:09;;;;;;;15.88;6.65;;;17.00;83.10;;;;;;4738248;30;20446;-90
2023/08/30 06:01:36;;;;;;;14.18;5.90;;;17.00;83.50;;;;;;4723936;30;20435;-91
2023/08/30 06:04:04;;;;;;;16.90;6.93;;;17.00;83.50;;;;;;4725053;30;20578;-90
2023/08/30 06:06:31;;;;;;;13.48;6.30;;;17.00;83.60;;;;;;4729368;30;20052;-90
2023/08/30 06:08:59;;;;;;;13.70;6.25;;;17.00;83.50;;;;;;4725092;30;20063;-89
2023/08/30 06:11:26;;;;;;;15.13;6.47;;;17.00;83.60;;;;;;4741302;30;20054;-90
2023/08/30 06:13:53;;;;;;;11.77;5.10;;;17.00;83.70;;;;;;4723333;30;20052;-89
2023/08/30 06:16:21;;;;;;;12.70;4.77;;;17.00;83.40;;;;;;4723565;30;20450;-88
2023/08/30 06:18:49;;;;;;;12.95;4.75;;;17.00;83.50;;;;;;4723175;30;20491;-89
2023/08/30 06:21:16;;;;;;;13.00;4.72;;;17.00;83.30;;;;;;4737791;30;20067;-88
2023/08/30 06:23:43;;;;;;;11.73;4.70;;;17.10;83.50;;;;;;4722308;30;20051;-89
2023/08/30 06:26:10;;;;;;;11.95;5.28;;;17.10;83.40;;;;;;4737581;30;20048;-90
2023/08/30 06:28:37;;;;;;;10.10;4.50;;;17.10;83.30;;;;;;4723173;30;20059;-89
2023/08/30 06:31:04;;;;;;;11.88;4.55;;;17.10;83.20;;;;;;4719913;30;20063;-88
2023/08/30 06:33:31;;;;;;;11.32;4.75;;;17.10;83.30;;;;;;4735652;30;20082;-87
2023/08/30 06:35:58;;;;;;;10.00;4.10;;;17.10;83.40;;;;;;4755576;30;20051;-90
2023/08/30 06:38:25;;;;;;;12.40;5.03;;;17.10;83.20;;;;;;4755593;30;20058;-90
2023/08/30 06:40:53;;;;;;;8.90;3.70;;;17.10;83.30;;;;;;4751439;30;20052;-90
2023/08/30 06:43:20;;;;;;;8.75;3.63;;;17.10;83.00;;;;;;4740743;30;20067;-89
2023/08/30 06:45:47;;;;;;;9.48;3.90;;;17.10;83.20;;;;;;4743123;30;20056;-89
2023/08/30 06:48:14;;;;;;;9.70;3.50;;;17.00;83.20;;;;;;4728164;30;20048;-88
2023/08/30 06:50:41;;;;;;;10.65;3.80;;;17.00;83.60;;;;;;4745730;30;20106;-88
2023/08/30 06:53:09;;;;;;;9.20;3.30;;;17.00;83.60;;;;;;4757635;30;20055;-88
2023/08/30 06:55:37;;;;;;;10.98;3.63;;;17.00;83.90;;;;;;4722007;30;20103;-91
2023/08/30 06:58:05;;;;;;;11.98;3.78;;;17.00;84.00;;;;;;4730747;30;20040;-88
2023/08/30 07:00:32;;;;;;;10.07;4.10;;;17.00;83.80;;;;;;4743758;30;20053;-88
2023/08/30 07:02:59;;;;;;;10.10;4.35;;;17.10;84.00;;;;;;4751128;30;20052;-88
2023/08/30 07:05:26;;;;;;;11.57;4.17;;;17.00;83.90;;;;;;4761974;30;20056;-88
2023/08/30 07:07:53;;;;;;;11.70;4.80;;;17.10;83.80;;;;;;4738898;30;20419;-88
2023/08/30 07:10:20;;;;;;;10.88;4.65;;;17.10;83.70;;;;;;4723701;30;20063;-88
2023/08/30 07:12:48;;;;;;;12.15;4.28;;;17.10;83.70;;;;;;4738919;30;20059;-88
2023/08/30 07:15:17;;;;;;;8.13;3.65;;;17.00;83.90;;;;;;4753058;30;20048;-88
2023/08/30 07:17:44;;;;;;;8.40;3.10;;;17.00;83.80;;;;;;4738287;30;20375;-88
2023/08/30 07:20:14;;;;;;;7.88;3.00;;;17.00;83.80;;;;;;4747993;30;20135;-89
2023/08/30 07:22:41;;;;;;;8.20;2.72;;;17.00;83.50;;;;;;4750590;30;20044;-89
2023/08/30 07:25:10;;;;;;;9.73;3.20;;;17.00;83.50;;;;;;4741634;30;20200;-89
2023/08/30 07:27:37;;;;;;;8.63;2.97;;;17.00;84.00;;;;;;4755024;30;20052;-89
2023/08/30 07:30:05;;;;;;;6.70;2.77;;;17.10;84.10;;;;;;4735103;30;20052;-89
2023/08/30 07:32:32;;;;;;;10.40;2.85;;;17.10;84.30;;;;;;4749821;30;20044;-89
2023/08/30 07:35:00;;;;;;;8.43;3.17;;;17.10;83.90;;;;;;4742610;30;20480;-88
2023/08/30 07:37:27;;;;;;;9.07;3.30;;;17.20;83.70;;;;;;4756888;30;20154;-91
2023/08/30 07:39:54;;;;;;;10.25;4.30;;;17.20;83.60;;;;;;4758176;30;20062;-91
2023/08/30 07:42:22;;;;;;;10.77;3.10;;;17.30;83.80;;;;;;4743372;30;20116;-91
2023/08/30 07:44:49;;;;;;;9.65;3.70;;;17.20;83.40;;;;;;4758006;30;20059;-90
2023/08/30 07:47:16;;;;;;;9.40;3.17;;;17.30;83.70;;;;;;4758047;30;20047;-91
2023/08/30 07:49:43;;;;;;;11.60;3.88;;;17.30;83.40;;;;;;4757825;30;20500;-91
2023/08/30 07:52:10;;;;;;;9.63;4.30;;;17.30;83.40;;;;;;4743418;30;20054;-90
2023/08/30 07:54:40;;;;;;;9.70;4.30;;;17.40;83.00;;;;;;4758035;30;20121;-91
2023/08/30 07:57:08;;;;;;;10.15;4.30;;;17.40;82.90;;;;;;4757849;30;20051;-90
2023/08/30 07:59:36;;;;;;;9.73;4.93;;;17.50;82.90;;;;;;4758039;30;20052;-91
2023/08/30 08:02:06;;;;;;;12.45;5.07;;;17.50;83.20;;;;;;4757710;30;20059;-90
2023/08/30 08:04:35;;;;;;;10.75;4.70;;;17.50;82.90;;;;;;4758006;30;20483;-91
2023/08/30 08:07:05;;;;;;;9.93;4.57;;;17.50;82.40;;;;;;4757720;30;20060;-90
2023/08/30 08:09:40;;;;;;;11.25;4.57;;;17.50;82.70;;;;;;4757725;30;20055;-91
2023/08/30 08:12:08;;;;;;;8.35;4.00;;;17.50;83.30;;;;;;4757495;30;20056;-91
2023/08/30 08:14:35;;;;;;;8.60;3.28;;;17.60;82.50;;;;;;4757773;30;20048;-89
2023/08/30 08:17:10;;;;;;;7.95;3.55;;;17.60;81.70;;;;;;4747515;30;20555;-91
2023/08/30 08:19:39;;;;;;;10.90;3.97;;;17.70;81.90;;;;;;4722532;30;20056;-89
2023/08/30 08:22:06;;;;;;;8.88;3.70;;;17.90;82.20;;;;;;4722045;30;20052;-90
2023/08/30 08:24:33;;;;;;;10.10;4.13;;;18.00;82.40;;;;;;4722396;30;20095;-92
2023/08/30 08:27:01;;;;;;;9.05;3.65;;;18.00;82.30;;;;;;4723626;30;20063;-91
2023/08/30 08:29:28;;;;;;;10.43;4.18;;;18.10;81.30;;;;;;4725104;30;20061;-91
2023/08/30 08:31:55;;;;;;;8.97;3.57;;;18.20;81.00;;;;;;4731838;30;20508;-92
2023/08/30 08:34:23;;;;;;;10.80;4.40;;;18.20;81.10;;;;;;4739677;30;20055;-92
2023/08/30 08:36:51;;;;;;;10.18;4.50;;;18.20;81.30;;;;;;4747019;30;20056;-92
2023/08/30 08:39:18;;;;;;;10.35;4.70;;;18.30;81.00;;;;;;4727127;30;20039;-92
2023/08/30 08:41:46;;;;;;;11.32;4.90;;;18.10;81.20;;;;;;4752987;30;20115;-92
2023/08/30 08:44:14;;;;;;;10.80;5.63;;;18.00;81.40;;;;;;4750391;30;20052;-92
2023/08/30 08:46:41;;;;;;;11.77;5.85;;;17.90;81.90;;;;;;4744232;30;20478;-92
2023/08/30 08:49:13;;;;;;;13.95;6.28;;;17.90;81.50;;;;;;4752204;30;20075;-92
2023/08/30 08:51:42;;;;;;;12.82;6.45;;;17.90;82.20;;;;;;4744514;30;20052;-91
2023/08/30 08:54:11;;;;;;;12.30;6.25;;;17.80;82.30;;;;;;4732620;30;20086;-91
2023/08/30 08:56:39;;;;;;;13.43;6.30;;;17.70;82.30;;;;;;4751159;30;20048;-92
2023/08/30 08:59:07;;;;;;;14.30;6.00;;;17.60;82.10;;;;;;4745252;30;20048;-92
2023/08/30 09:01:36;;;;;;;11.90;6.22;;;17.60;81.80;;;;;;4741650;30;20515;-92
2023/08/30 09:04:08;;;;;;;12.10;5.88;;;17.50;82.40;;;;;;4735584;30;20062;-91
2023/08/30 09:06:36;;;;;;;13.00;6.03;;;17.50;82.50;;;;;;4739149;30;20572;-91
2023/08/30 09:09:04;;;;;;;11.50;5.80;;;17.60;82.30;;;;;;4730926;30;20043;-91
2023/08/30 09:11:32;;;;;;;13.98;6.40;;;17.60;82.00;;;;;;4737283;30;20141;-91
2023/08/30 09:14:02;;;;;;;11.85;5.50;;;17.60;82.50;;;;;;4744836;30;20048;-95
2023/08/30 09:16:30;;;;;;;9.95;5.07;;;17.50;82.50;;;;;;4751901;30;20055;-94
2023/08/30 09:19:01;;;;;;;10.73;5.13;;;17.50;82.40;;;;;;4741303;30;20040;-94
2023/08/30 09:21:31;;;;;;;10.30;5.47;;;17.40;82.60;;;;;;4750605;30;20138;-95
2023/08/30 09:24:05;;;;;;;11.38;5.30;;;17.40;82.90;;;;;;4727932;30;20070;-93
2023/08/30 09:26:38;;;;;;;10.63;5.20;;;17.40;82.20;;;;;;4747963;30;20056;-94
2023/08/30 09:29:06;;;;;;;13.13;6.10;;;17.40;82.50;;;;;;4723617;30;20510;-94
2023/08/30 09:31:35;;;;;;;11.48;6.55;;;17.30;82.90;;;;;;4750761;30;20052;-93
2023/08/30 09:34:04;;;;;;;12.60;6.27;;;17.40;82.80;;;;;;4734910;30;20043;-93
2023/08/30 09:36:41;;;;;;;11.40;5.95;;;17.40;82.30;;;;;;4746839;30;20499;-93
2023/08/30 09:39:14;;;;;;;11.40;6.78;;;17.50;82.00;;;;;;4726955;30;20139;-94
2023/08/30 09:41:45;;;;;;;12.07;6.00;;;17.50;82.40;;;;;;4751618;30;20063;-94
2023/08/30 09:44:16;;;;;;;11.73;6.63;;;17.70;82.10;;;;;;4746638;30;20058;-94
2023/08/30 09:46:51;;;;;;;11.23;5.80;;;17.90;81.60;;;;;;4748279;30;20086;-93
2023/08/30 09:49:24;;;;;;;10.20;5.65;;;17.80;81.70;;;;;;4742754;30;20068;-94
2023/08/30 09:51:54;;;;;;;10.65;5.95;;;17.80;82.40;;;;;;4751273;30;20511;-94
2023/08/30 09:54:43;;;;;;;9.60;5.72;;;17.60;81.60;;;;;;4732785;30;20044;-93
2023/08/30 09:57:11;;;;;;;10.75;6.13;;;17.50;82.10;;;;;;4740521;30;20055;-93
2023/08/30 09:59:39;;;;;;;10.97;6.00;;;17.40;82.40;;;;;;4746100;30;20048;-93
2023/08/30 10:02:08;;;;;;;9.75;6.00;;;17.30;82.60;;;;;;4739181;30;20045;-93
2023/08/30 10:04:39;;;;;;;9.23;5.50;;;17.30;82.80;;;;;;4748293;30;20507;-93
2023/08/30 10:07:06;;;;;;;10.80;5.70;;;17.40;82.80;;;;;;4734471;30;20070;-94
2023/08/30 10:09:36;;;;;;;10.50;5.20;;;17.40;82.50;;;;;;4744784;30;20405;-94
2023/08/30 10:12:05;;;;;;;9.50;5.67;;;17.40;82.40;;;;;;4740103;30;20492;-94
2023/08/30 10:14:32;;;;;;;9.38;5.25;;;17.40;82.40;;;;;;4744343;30;20118;-94
2023/08/30 10:17:05;;;;;;;11.77;6.40;;;17.40;82.40;;;;;;4726890;30;20109;-93
2023/08/30 10:19:33;;;;;;;9.95;5.78;;;17.40;82.70;;;;;;4729504;30;20083;-93
2023/08/30 10:22:04;;;;;;;12.73;6.85;;;17.50;82.70;;;;;;4747667;30;20426;-94
2023/08/30 10:24:44;;;;;;;10.90;6.03;;;17.40;82.80;;;;;;4731671;30;20089;-94
2023/08/30 10:27:36;;;;;;;11.25;6.32;;;17.40;82.60;;;;;;4746228;30;20052;-94
2023/08/30 10:30:06;;;;;;;11.75;6.70;;;17.30;82.90;;;;;;4747782;30;20055;-94
2023/08/30 10:32:39;;;;;;;12.43;7.00;;;17.30;83.10;;;;;;4742416;30;20048;-94
2023/08/30 10:35:06;;;;;;;12.30;6.60;;;17.40;83.30;;;;;;4744314;30;20047;-93
2023/08/30 10:37:33;;;;;;;12.13;6.60;;;17.30;83.00;;;;;;4740047;30;20055;-90
2023/08/30 10:40:04;;;;;;;11.50;5.97;;;17.30;83.20;;;;;;4740463;30;20080;-90
2023/08/30 10:42:31;;;;;;;11.73;6.38;;;17.40;83.50;;;;;;4750820;30;20592;-90
2023/08/30 10:44:58;;;;;;;12.35;6.05;;;17.50;83.60;;;;;;4739210;30;20051;-91
2023/08/30 10:47:40;;;;;;;9.85;5.93;;;17.50;82.90;;;;;;4732212;30;20044;-91
2023/08/30 10:50:10;;;;;;;10.37;5.60;;;17.50;82.20;;;;;;4742332;30;20441;-91
2023/08/30 10:52:37;;;;;;;12.90;6.20;;;17.30;82.70;;;;;;4736768;30;20537;-90
2023/08/30 10:55:14;;;;;;;9.85;5.47;;;17.30;83.10;;;;;;4740815;30;20076;-91
2023/08/30 10:57:45;;;;;;;9.38;5.18;;;17.20;83.20;;;;;;4739485;30;20132;-91
2023/08/30 11:00:20;;;;;;;8.40;4.18;;;17.10;83.80;;;;;;4734905;30;20131;-91
2023/08/30 11:02:52;;;;;;;9.10;4.00;;;17.20;83.60;;;;;;4741421;30;20117;-91
2023/08/30 11:05:23;;;;;;;10.20;3.97;;;17.10;83.10;;;;;;4729978;30;20052;-91
2023/08/30 11:07:51;;;;;;;9.43;4.03;;;17.10;83.70;;;;;;4740088;30;20052;-91
2023/08/30 11:10:19;;;;;;;11.32;3.67;;;17.10;83.60;;;;;;4733804;30;20044;-91
2023/08/30 11:12:49;;;;;;;7.65;3.67;;;17.20;83.20;;;;;;4725622;30;20056;-94
2023/08/30 11:15:17;;;;;;;8.63;4.33;;;17.20;83.10;;;;;;4747011;30;20052;-94
2023/08/30 11:17:44;;;;;;;11.55;4.30;;;17.30;83.00;;;;;;4742828;30;20053;-93
2023/08/30 11:20:14;;;;;;;10.90;4.75;;;17.30;82.90;;;;;;4747377;30;20048;-94
2023/08/30 11:22:46;;;;;;;10.55;4.55;;;17.30;83.50;;;;;;4734766;30;20102;-94
2023/08/30 11:25:15;;;;;;;9.98;4.43;;;17.30;84.00;;;;;;4743455;30;20067;-94
2023/08/30 11:27:43;;;;;;;8.97;4.30;;;17.50;83.90;;;;;;4746036;30;20060;-93
2023/08/30 11:30:10;;;;;;;9.57;4.00;;;17.50;83.10;;;;;;4748447;30;20050;-94
2023/08/30 11:32:39;;;;;;;10.27;4.25;;;17.60;83.00;;;;;;4750868;30;20101;-94
2023/08/30 11:35:07;;;;;;;10.02;4.10;;;17.80;82.70;;;;;;4740947;30;20083;-94
2023/08/30 11:37:35;;;;;;;7.45;3.58;;;17.80;82.20;;;;;;4728382;30;20057;-95
2023/08/30 11:40:06;;;;;;;9.13;3.57;;;17.70;81.50;;;;;;4746374;30;20055;-94
2023/08/30 11:42:33;;;;;;;8.65;3.35;;;17.70;81.60;;;;;;4751453;30;20109;-91
2023/08/30 11:45:02;;;;;;;7.30;3.55;;;17.50;81.70;;;;;;4735827;30;20052;-91
2023/08/30 11:47:29;;;;;;;8.40;3.80;;;17.50;82.20;;;;;;4746358;30;20083;-89
2023/08/30 11:49:58;;;;;;;9.95;3.65;;;17.50;82.10;;;;;;4736187;30;20073;-92
2023/08/30 11:53:38;;;;;;;9.07;3.70;;;17.30;82.30;;;;;;4749221;30;20048;-91
2023/08/30 12:01:02;;;;;;;8.95;4.00;;;17.40;82.80;;;;;;4756301;30;20084;-88
2023/08/30 12:03:30;;;;;;;8.93;3.53;;;17.50;82.70;;;;;;4744489;30;20218;-88
2023/08/30 12:05:58;;;;;;;9.40;3.72;;;17.50;82.50;;;;;;4730529;30;20058;-89
2023/08/30 12:08:27;;;;;;;8.83;3.97;;;17.60;82.30;;;;;;4743531;30;20062;-89
2023/08/30 12:10:55;;;;;;;10.85;3.85;;;17.70;81.90;;;;;;4741132;30;20060;-90
2023/08/30 12:13:30;;;;;;;6.75;3.42;;;17.70;82.00;;;;;;4726155;30;20146;-89
2023/08/30 12:15:58;;;;;;;9.00;3.65;;;17.70;81.60;;;;;;4733365;30;20474;-89
2023/08/30 12:18:32;;;;;;;8.20;3.25;;;17.70;81.70;;;;;;4742366;30;20107;-89
2023/08/30 12:21:04;;;;;;;6.60;2.97;;;17.60;81.70;;;;;;4734170;30;20131;-89
2023/08/30 12:23:32;;;;;;;5.75;2.70;;;17.60;81.40;;;;;;4740166;30;20155;-86
2023/08/30 12:26:07;;;;;;;6.70;2.70;;;17.60;81.80;;;;;;4745333;30;20051;-87
2023/08/30 12:28:38;;;;;;;7.07;2.88;;;17.50;81.20;;;;;;4741606;30;20068;-87
2023/08/30 12:31:06;;;;;;;7.75;3.25;;;17.50;82.10;;;;;;4745632;30;20079;-90
2023/08/30 12:33:34;;;;;;;7.13;3.60;;;17.50;82.50;;;;;;4735191;30;20052;-91
2023/08/30 12:36:01;;;;;;;7.78;4.47;;;17.50;82.40;;;;;;4756831;30;20523;-89
2023/08/30 12:38:29;;;;;;;9.25;5.13;;;17.40;82.60;;;;;;4756325;30;20388;-88
2023/08/30 12:40:56;;;;;;;11.20;5.07;;;17.30;82.90;;;;;;4755997;30;20040;-89
2023/08/30 12:43:24;;;;;;;9.60;5.65;;;17.40;82.20;;;;;;4740340;30;20059;-90
2023/08/30 12:45:51;;;;;;;10.50;5.73;;;17.30;82.20;;;;;;4751518;30;20454;-90
2023/08/30 12:48:18;;;;;;;10.40;5.97;;;17.20;82.60;;;;;;4747228;30;20051;-90
2023/08/30 12:50:47;;;;;;;10.88;6.82;;;17.10;82.60;;;;;;4744633;30;20051;-91